Aviation Digital Data Service (ADDS)

Output produced by METARs form (0917 UTC 24 March 2019)
found at http://www.aviationweather.gov/metar/data/
 
METAR text: ZLXY 240900Z 20003MPS 150V260 CAVOK 19/M05 Q1013 NOSIG
Conditions at: ZLXY (XIANYANG , CN) observed 0900 UTC 24 March 2019
Temperature: 19.0°C (66°F)
Dewpoint: -5.0°C (23°F) [RH = 19%]
Pressure (altimeter): 29.91 inches Hg (1013.0 mb)
Winds: from the SSW (200 degrees) at 7 MPH (6 knots; 3.1 m/s)
Visibility: 6 or more miles (10+ km)
Ceiling: ceiling and visibility are OK
Clouds: unknown
Weather: no significant weather observed at this time

METAR text: ZLXY 240800Z VRB03MPS CAVOK 19/M05 Q1013 NOSIG
Conditions at: ZLXY (XIANYANG , CN) observed 0800 UTC 24 March 2019
Temperature: 19.0°C (66°F)
Dewpoint: -5.0°C (23°F) [RH = 19%]
Pressure (altimeter): 29.91 inches Hg (1013.0 mb)
Winds: variable direction winds at 7 MPH (6 knots; 3.1 m/s)
Visibility: 6 or more miles (10+ km)
Ceiling: ceiling and visibility are OK
Clouds: unknown
Weather: no significant weather observed at this time

METAR text: ZLXY 240700Z 22003MPS 160V250 CAVOK 18/M05 Q1014 NOSIG
Conditions at: ZLXY (XIANYANG , CN) observed 0700 UTC 24 March 2019
Temperature: 18.0°C (64°F)
Dewpoint: -5.0°C (23°F) [RH = 20%]
Pressure (altimeter): 29.94 inches Hg (1014.0 mb)
Winds: from the SW (220 degrees) at 7 MPH (6 knots; 3.1 m/s)
Visibility: 6 or more miles (10+ km)
Ceiling: ceiling and visibility are OK
Clouds: unknown
Weather: no significant weather observed at this time

METAR text: ZLXY 240600Z VRB02MPS CAVOK 17/M05 Q1015 NOSIG
Conditions at: ZLXY (XIANYANG , CN) observed 0600 UTC 24 March 2019
Temperature: 17.0°C (63°F)
Dewpoint: -5.0°C (23°F) [RH = 22%]
Pressure (altimeter): 29.97 inches Hg (1015.0 mb)
Winds: variable direction winds at 5 MPH (4 knots; 2.1 m/s)
Visibility: 6 or more miles (10+ km)
Ceiling: ceiling and visibility are OK
Clouds: unknown
Weather: no significant weather observed at this time

METAR text: ZLXY 240500Z VRB01MPS CAVOK 17/M04 Q1016 NOSIG
Conditions at: ZLXY (XIANYANG , CN) observed 0500 UTC 24 March 2019
Temperature: 17.0°C (63°F)
Dewpoint: -4.0°C (25°F) [RH = 23%]
Pressure (altimeter): 30.00 inches Hg (1016.0 mb)
Winds: variable direction winds at 2 MPH (2 knots; 1.0 m/s)
Visibility: 6 or more miles (10+ km)
Ceiling: ceiling and visibility are OK
Clouds: unknown
Weather: no significant weather observed at this time

METAR text: ZLXY 240400Z VRB01MPS CAVOK 16/M05 Q1018 NOSIG
Conditions at: ZLXY (XIANYANG , CN) observed 0400 UTC 24 March 2019
Temperature: 16.0°C (61°F)
Dewpoint: -5.0°C (23°F) [RH = 23%]
Pressure (altimeter): 30.06 inches Hg (1018.0 mb)
Winds: variable direction winds at 2 MPH (2 knots; 1.0 m/s)
Visibility: 6 or more miles (10+ km)
Ceiling: ceiling and visibility are OK
Clouds: unknown
Weather: no significant weather observed at this time

METAR text: ZLXY 240300Z 07003MPS 010V140 CAVOK 14/M06 Q1019 NOSIG
Conditions at: ZLXY (XIANYANG , CN) observed 0300 UTC 24 March 2019
Temperature: 14.0°C (57°F)
Dewpoint: -6.0°C (21°F) [RH = 24%]
Pressure (altimeter): 30.09 inches Hg (1019.0 mb)
Winds: from the ENE (70 degrees) at 7 MPH (6 knots; 3.1 m/s)
Visibility: 6 or more miles (10+ km)
Ceiling: ceiling and visibility are OK
Clouds: unknown
Weather: no significant weather observed at this time

METAR text: ZLXY 240200Z 06005MPS CAVOK 11/M06 Q1020 NOSIG
Conditions at: ZLXY (XIANYANG , CN) observed 0200 UTC 24 March 2019
Temperature: 11.0°C (52°F)
Dewpoint: -6.0°C (21°F) [RH = 30%]
Pressure (altimeter): 30.12 inches Hg (1020.0 mb)
Winds: from the ENE (60 degrees) at 12 MPH (10 knots; 5.1 m/s)
Visibility: 6 or more miles (10+ km)
Ceiling: ceiling and visibility are OK
Clouds: unknown
Weather: no significant weather observed at this time

METAR text: ZLXY 240100Z 05003MPS 010V070 CAVOK 09/M08 Q1020 NOSIG
Conditions at: ZLXY (XIANYANG , CN) observed 0100 UTC 24 March 2019
Temperature: 9.0°C (48°F)
Dewpoint: -8.0°C (18°F) [RH = 29%]
Pressure (altimeter): 30.12 inches Hg (1020.0 mb)
Winds: from the NE (50 degrees) at 7 MPH (6 knots; 3.1 m/s)
Visibility: 6 or more miles (10+ km)
Ceiling: ceiling and visibility are OK
Clouds: unknown
Weather: no significant weather observed at this time

METAR text: ZLXY 240000Z 03001MPS CAVOK 05/M08 Q1019 NOSIG
Conditions at: ZLXY (XIANYANG , CN) observed 0000 UTC 24 March 2019
Temperature: 5.0°C (41°F)
Dewpoint: -8.0°C (18°F) [RH = 38%]
Pressure (altimeter): 30.09 inches Hg (1019.0 mb)
Winds: from the NNE (30 degrees) at 2 MPH (2 knots; 1.0 m/s)
Visibility: 6 or more miles (10+ km)
Ceiling: ceiling and visibility are OK
Clouds: unknown
Weather: no significant weather observed at this time

METAR text: ZLXY 232300Z VRB01MPS CAVOK 03/M08 Q1019 NOSIG
Conditions at: ZLXY (XIANYANG , CN) observed 2300 UTC 23 March 2019
Temperature: 3.0°C (37°F)
Dewpoint: -8.0°C (18°F) [RH = 44%]
Pressure (altimeter): 30.09 inches Hg (1019.0 mb)
Winds: variable direction winds at 2 MPH (2 knots; 1.0 m/s)
Visibility: 6 or more miles (10+ km)
Ceiling: ceiling and visibility are OK
Clouds: unknown
Weather: no significant weather observed at this time

METAR text: ZLXY 232200Z 03002MPS 010V070 CAVOK 04/M10 Q1019 NOSIG
Conditions at: ZLXY (XIANYANG , CN) observed 2200 UTC 23 March 2019
Temperature: 4.0°C (39°F)
Dewpoint: -10.0°C (14°F) [RH = 35%]
Pressure (altimeter): 30.09 inches Hg (1019.0 mb)
Winds: from the NNE (30 degrees) at 5 MPH (4 knots; 2.1 m/s)
Visibility: 6 or more miles (10+ km)
Ceiling: ceiling and visibility are OK
Clouds: unknown
Weather: no significant weather observed at this time

METAR text: ZLXY 232100Z 04002MPS CAVOK 02/M08 Q1019 NOSIG
Conditions at: ZLXY (XIANYANG , CN) observed 2100 UTC 23 March 2019
Temperature: 2.0°C (36°F)
Dewpoint: -8.0°C (18°F) [RH = 47%]
Pressure (altimeter): 30.09 inches Hg (1019.0 mb)
Winds: from the NE (40 degrees) at 5 MPH (4 knots; 2.1 m/s)
Visibility: 6 or more miles (10+ km)
Ceiling: ceiling and visibility are OK
Clouds: unknown
Weather: no significant weather observed at this time

METAR text: ZLXY 232000Z 10002MPS CAVOK 06/M09 Q1019 NOSIG
Conditions at: ZLXY (XIANYANG , CN) observed 2000 UTC 23 March 2019
Temperature: 6.0°C (43°F)
Dewpoint: -9.0°C (16°F) [RH = 33%]
Pressure (altimeter): 30.09 inches Hg (1019.0 mb)
Winds: from the E (100 degrees) at 5 MPH (4 knots; 2.1 m/s)
Visibility: 6 or more miles (10+ km)
Ceiling: ceiling and visibility are OK
Clouds: unknown
Weather: no significant weather observed at this time

METAR text: ZLXY 231900Z 03002MPS CAVOK 04/M09 Q1020 NOSIG
Conditions at: ZLXY (XIANYANG , CN) observed 1900 UTC 23 March 2019
Temperature: 4.0°C (39°F)
Dewpoint: -9.0°C (16°F) [RH = 38%]
Pressure (altimeter): 30.12 inches Hg (1020.0 mb)
Winds: from the NNE (30 degrees) at 5 MPH (4 knots; 2.1 m/s)
Visibility: 6 or more miles (10+ km)
Ceiling: ceiling and visibility are OK
Clouds: unknown
Weather: no significant weather observed at this time

METAR text: ZLXY 231800Z VRB01MPS CAVOK 04/M09 Q1020 NOSIG
Conditions at: ZLXY (XIANYANG , CN) observed 1800 UTC 23 March 2019
Temperature: 4.0°C (39°F)
Dewpoint: -9.0°C (16°F) [RH = 38%]
Pressure (altimeter): 30.12 inches Hg (1020.0 mb)
Winds: variable direction winds at 2 MPH (2 knots; 1.0 m/s)
Visibility: 6 or more miles (10+ km)
Ceiling: ceiling and visibility are OK
Clouds: unknown
Weather: no significant weather observed at this time

METAR text: ZLXY 231700Z 02003MPS 350V050 CAVOK 08/M10 Q1020 NOSIG
Conditions at: ZLXY (XIANYANG , CN) observed 1700 UTC 23 March 2019
Temperature: 8.0°C (46°F)
Dewpoint: -10.0°C (14°F) [RH = 27%]
Pressure (altimeter): 30.12 inches Hg (1020.0 mb)
Winds: from the NNE (20 degrees) at 7 MPH (6 knots; 3.1 m/s)
Visibility: 6 or more miles (10+ km)
Ceiling: ceiling and visibility are OK
Clouds: unknown
Weather: no significant weather observed at this time

METAR text: ZLXY 231600Z 04002MPS CAVOK 05/M09 Q1021 NOSIG
Conditions at: ZLXY (XIANYANG , CN) observed 1600 UTC 23 March 2019
Temperature: 5.0°C (41°F)
Dewpoint: -9.0°C (16°F) [RH = 35%]
Pressure (altimeter): 30.15 inches Hg (1021.0 mb)
Winds: from the NE (40 degrees) at 5 MPH (4 knots; 2.1 m/s)
Visibility: 6 or more miles (10+ km)
Ceiling: ceiling and visibility are OK
Clouds: unknown
Weather: no significant weather observed at this time

METAR text: ZLXY 231500Z VRB01MPS CAVOK 05/M09 Q1021 NOSIG
Conditions at: ZLXY (XIANYANG , CN) observed 1500 UTC 23 March 2019
Temperature: 5.0°C (41°F)
Dewpoint: -9.0°C (16°F) [RH = 35%]
Pressure (altimeter): 30.15 inches Hg (1021.0 mb)
Winds: variable direction winds at 2 MPH (2 knots; 1.0 m/s)
Visibility: 6 or more miles (10+ km)
Ceiling: ceiling and visibility are OK
Clouds: unknown
Weather: no significant weather observed at this time

METAR text: ZLXY 231400Z 01002MPS CAVOK 08/M10 Q1021 NOSIG
Conditions at: ZLXY (XIANYANG , CN) observed 1400 UTC 23 March 2019
Temperature: 8.0°C (46°F)
Dewpoint: -10.0°C (14°F) [RH = 27%]
Pressure (altimeter): 30.15 inches Hg (1021.0 mb)
Winds: from the N (10 degrees) at 5 MPH (4 knots; 2.1 m/s)
Visibility: 6 or more miles (10+ km)
Ceiling: ceiling and visibility are OK
Clouds: unknown
Weather: no significant weather observed at this time

METAR text: ZLXY 231300Z 04003MPS CAVOK 10/M11 Q1022 NOSIG
Conditions at: ZLXY (XIANYANG , CN) observed 1300 UTC 23 March 2019
Temperature: 10.0°C (50°F)
Dewpoint: -11.0°C (12°F) [RH = 22%]
Pressure (altimeter): 30.18 inches Hg (1022.0 mb)
Winds: from the NE (40 degrees) at 7 MPH (6 knots; 3.1 m/s)
Visibility: 6 or more miles (10+ km)
Ceiling: ceiling and visibility are OK
Clouds: unknown
Weather: no significant weather observed at this time

METAR text: ZLXY 231200Z 07004MPS CAVOK 12/M11 Q1021 NOSIG
Conditions at: ZLXY (XIANYANG , CN) observed 1200 UTC 23 March 2019
Temperature: 12.0°C (54°F)
Dewpoint: -11.0°C (12°F) [RH = 19%]
Pressure (altimeter): 30.15 inches Hg (1021.0 mb)
Winds: from the ENE (70 degrees) at 9 MPH (8 knots; 4.1 m/s)
Visibility: 6 or more miles (10+ km)
Ceiling: ceiling and visibility are OK
Clouds: unknown
Weather: no significant weather observed at this time

METAR text: ZLXY 231100Z 08005MPS CAVOK 14/M12 Q1021 NOSIG
Conditions at: ZLXY (XIANYANG , CN) observed 1100 UTC 23 March 2019
Temperature: 14.0°C (57°F)
Dewpoint: -12.0°C (10°F) [RH = 15%]
Pressure (altimeter): 30.15 inches Hg (1021.0 mb)
Winds: from the E (80 degrees) at 12 MPH (10 knots; 5.1 m/s)
Visibility: 6 or more miles (10+ km)
Ceiling: ceiling and visibility are OK
Clouds: unknown
Weather: no significant weather observed at this time

METAR text: ZLXY 231000Z 07005MPS 030V100 CAVOK 16/M13 Q1021 NOSIG
Conditions at: ZLXY (XIANYANG , CN) observed 1000 UTC 23 March 2019
Temperature: 16.0°C (61°F)
Dewpoint: -13.0°C ( 9°F) [RH = 12%]
Pressure (altimeter): 30.15 inches Hg (1021.0 mb)
Winds: from the ENE (70 degrees) at 12 MPH (10 knots; 5.1 m/s)
Visibility: 6 or more miles (10+ km)
Ceiling: ceiling and visibility are OK
Clouds: unknown
Weather: no significant weather observed at this time

METAR text: ZLXY 230900Z 06005MPS CAVOK 17/M14 Q1022 NOSIG
Conditions at: ZLXY (XIANYANG , CN) observed 0900 UTC 23 March 2019
Temperature: 17.0°C (63°F)
Dewpoint: -14.0°C ( 7°F) [RH = 11%]
Pressure (altimeter): 30.18 inches Hg (1022.0 mb)
Winds: from the ENE (60 degrees) at 12 MPH (10 knots; 5.1 m/s)
Visibility: 6 or more miles (10+ km)
Ceiling: ceiling and visibility are OK
Clouds: unknown
Weather: no significant weather observed at this time

METAR text: ZLXY 230800Z 05004MPS 010V100 CAVOK 18/M14 Q1022 NOSIG
Conditions at: ZLXY (XIANYANG , CN) observed 0800 UTC 23 March 2019
Temperature: 18.0°C (64°F)
Dewpoint: -14.0°C ( 7°F) [RH = 10%]
Pressure (altimeter): 30.18 inches Hg (1022.0 mb)
Winds: from the NE (50 degrees) at 9 MPH (8 knots; 4.1 m/s)
Visibility: 6 or more miles (10+ km)
Ceiling: ceiling and visibility are OK
Clouds: unknown
Weather: no significant weather observed at this time

METAR text: ZLXY 230700Z 05004MPS 010V100 CAVOK 18/M13 Q1023 NOSIG
Conditions at: ZLXY (XIANYANG , CN) observed 0700 UTC 23 March 2019
Temperature: 18.0°C (64°F)
Dewpoint: -13.0°C ( 9°F) [RH = 11%]
Pressure (altimeter): 30.21 inches Hg (1023.0 mb)
Winds: from the NE (50 degrees) at 9 MPH (8 knots; 4.1 m/s)
Visibility: 6 or more miles (10+ km)
Ceiling: ceiling and visibility are OK
Clouds: unknown
Weather: no significant weather observed at this time

METAR text: ZLXY 230600Z 06003MPS 010V120 CAVOK 16/M13 Q1025 NOSIG
Conditions at: ZLXY (XIANYANG , CN) observed 0600 UTC 23 March 2019
Temperature: 16.0°C (61°F)
Dewpoint: -13.0°C ( 9°F) [RH = 12%]
Pressure (altimeter): 30.27 inches Hg (1025.0 mb)
Winds: from the ENE (60 degrees) at 7 MPH (6 knots; 3.1 m/s)
Visibility: 6 or more miles (10+ km)
Ceiling: ceiling and visibility are OK
Clouds: unknown
Weather: no significant weather observed at this time

METAR text: ZLXY 230500Z 05004MPS 010V080 CAVOK 16/M12 Q1027 NOSIG
Conditions at: ZLXY (XIANYANG , CN) observed 0500 UTC 23 March 2019
Temperature: 16.0°C (61°F)
Dewpoint: -12.0°C (10°F) [RH = 13%]
Pressure (altimeter): 30.32 inches Hg (1027.0 mb)
Winds: from the NE (50 degrees) at 9 MPH (8 knots; 4.1 m/s)
Visibility: 6 or more miles (10+ km)
Ceiling: ceiling and visibility are OK
Clouds: unknown
Weather: no significant weather observed at this time

METAR text: ZLXY 230400Z 06005MPS 030V100 CAVOK 15/M08 Q1028 NOSIG
Conditions at: ZLXY (XIANYANG , CN) observed 0400 UTC 23 March 2019
Temperature: 15.0°C (59°F)
Dewpoint: -8.0°C (18°F) [RH = 20%]
Pressure (altimeter): 30.35 inches Hg (1028.0 mb)
Winds: from the ENE (60 degrees) at 12 MPH (10 knots; 5.1 m/s)
Visibility: 6 or more miles (10+ km)
Ceiling: ceiling and visibility are OK
Clouds: unknown
Weather: no significant weather observed at this time

METAR text: ZLXY 230300Z 07003MPS 360V150 CAVOK 14/M04 Q1029 NOSIG
Conditions at: ZLXY (XIANYANG , CN) observed 0300 UTC 23 March 2019
Temperature: 14.0°C (57°F)
Dewpoint: -4.0°C (25°F) [RH = 28%]
Pressure (altimeter): 30.38 inches Hg (1029.0 mb)
Winds: from the ENE (70 degrees) at 7 MPH (6 knots; 3.1 m/s)
Visibility: 6 or more miles (10+ km)
Ceiling: ceiling and visibility are OK
Clouds: unknown
Weather: no significant weather observed at this time

METAR text: ZLXY 230200Z 07003MPS 030V100 CAVOK 11/M05 Q1030 NOSIG
Conditions at: ZLXY (XIANYANG , CN) observed 0200 UTC 23 March 2019
Temperature: 11.0°C (52°F)
Dewpoint: -5.0°C (23°F) [RH = 32%]
Pressure (altimeter): 30.41 inches Hg (1030.0 mb)
Winds: from the ENE (70 degrees) at 7 MPH (6 knots; 3.1 m/s)
Visibility: 6 or more miles (10+ km)
Ceiling: ceiling and visibility are OK
Clouds: unknown
Weather: no significant weather observed at this time

METAR text: ZLXY 230100Z 06003MPS 010V100 CAVOK 09/M08 Q1029 NOSIG
Conditions at: ZLXY (XIANYANG , CN) observed 0100 UTC 23 March 2019
Temperature: 9.0°C (48°F)
Dewpoint: -8.0°C (18°F) [RH = 29%]
Pressure (altimeter): 30.38 inches Hg (1029.0 mb)
Winds: from the ENE (60 degrees) at 7 MPH (6 knots; 3.1 m/s)
Visibility: 6 or more miles (10+ km)
Ceiling: ceiling and visibility are OK
Clouds: unknown
Weather: no significant weather observed at this time

METAR text: ZLXY 230000Z VRB01MPS CAVOK 04/M05 Q1029 NOSIG
Conditions at: ZLXY (XIANYANG , CN) observed 0000 UTC 23 March 2019
Temperature: 4.0°C (39°F)
Dewpoint: -5.0°C (23°F) [RH = 52%]
Pressure (altimeter): 30.38 inches Hg (1029.0 mb)
Winds: variable direction winds at 2 MPH (2 knots; 1.0 m/s)
Visibility: 6 or more miles (10+ km)
Ceiling: ceiling and visibility are OK
Clouds: unknown
Weather: no significant weather observed at this time

METAR text: ZLXY 222300Z 00000MPS CAVOK M01/M05 Q1028 NOSIG
Conditions at: ZLXY (XIANYANG , CN) observed 2300 UTC 22 March 2019
Temperature: -1.0°C (30°F)
Dewpoint: -5.0°C (23°F) [RH = 74%]
Pressure (altimeter): 30.35 inches Hg (1028.0 mb)
Winds: calm
Visibility: 6 or more miles (10+ km)
Ceiling: ceiling and visibility are OK
Clouds: unknown
Weather: no significant weather observed at this time

METAR text: ZLXY 222200Z 00000MPS CAVOK M01/M05 Q1027 NOSIG
Conditions at: ZLXY (XIANYANG , CN) observed 2200 UTC 22 March 2019
Temperature: -1.0°C (30°F)
Dewpoint: -5.0°C (23°F) [RH = 74%]
Pressure (altimeter): 30.32 inches Hg (1027.0 mb)
Winds: calm
Visibility: 6 or more miles (10+ km)
Ceiling: ceiling and visibility are OK
Clouds: unknown
Weather: no significant weather observed at this time

Forecast for: ZLXY (XIANYANG , CN)
Text: TAF ZLXY 240307Z 2406/2506 24003MPS 3000 HZ NSC TX20/2408Z TN08/2423Z
Forecast period: 0600 UTC 24 March 2019 to 0600 UTC 25 March 2019
Forecast type: FROM: standard forecast or significant change
Winds: from the WSW (240 degrees) at 7 MPH (6 knots; 3.1 m/s)
Visibility: 1.86 miles (2.99 km)
Ceiling: unknown
Clouds: missing
Weather: HZ  (haze)